sensor_id;sensor_type;location;lat;lon;timestamp;temperature;humidity
39019;DHT22;24786;51.984;5.872;2023-05-29T00:02:23;12.40;99.90
39019;DHT22;24786;51.984;5.872;2023-05-29T00:04:49;12.40;99.90
39019;DHT22;24786;51.984;5.872;2023-05-29T00:07:16;12.40;99.90
39019;DHT22;24786;51.984;5.872;2023-05-29T00:09:41;12.40;99.90
39019;DHT22;24786;51.984;5.872;2023-05-29T00:12:07;12.20;99.90
39019;DHT22;24786;51.984;5.872;2023-05-29T00:14:32;12.20;99.90
39019;DHT22;24786;51.984;5.872;2023-05-29T00:16:58;12.20;99.90
39019;DHT22;24786;51.984;5.872;2023-05-29T00:19:23;12.20;99.90
39019;DHT22;24786;51.984;5.872;2023-05-29T00:21:50;12.10;99.90
39019;DHT22;24786;51.984;5.872;2023-05-29T00:24:15;12.10;99.90
39019;DHT22;24786;51.984;5.872;2023-05-29T00:26:42;12.10;99.90
39019;DHT22;24786;51.984;5.872;2023-05-29T00:29:07;12.00;99.90
39019;DHT22;24786;51.984;5.872;2023-05-29T00:31:33;11.90;99.90
39019;DHT22;24786;51.984;5.872;2023-05-29T00:33:58;11.90;99.90
39019;DHT22;24786;51.984;5.872;2023-05-29T00:36:24;11.90;99.90
39019;DHT22;24786;51.984;5.872;2023-05-29T00:38:50;11.90;99.90
39019;DHT22;24786;51.984;5.872;2023-05-29T00:41:16;11.90;99.90
39019;DHT22;24786;51.984;5.872;2023-05-29T00:43:42;11.80;99.90
39019;DHT22;24786;51.984;5.872;2023-05-29T00:46:08;11.80;99.90
39019;DHT22;24786;51.984;5.872;2023-05-29T00:48:33;11.80;99.90
39019;DHT22;24786;51.984;5.872;2023-05-29T00:50:59;11.80;99.90
39019;DHT22;24786;51.984;5.872;2023-05-29T00:53:24;11.70;99.90
39019;DHT22;24786;51.984;5.872;2023-05-29T00:55:50;11.70;99.90
39019;DHT22;24786;51.984;5.872;2023-05-29T00:58:16;11.70;99.90
39019;DHT22;24786;51.984;5.872;2023-05-29T01:00:42;11.60;99.90
39019;DHT22;24786;51.984;5.872;2023-05-29T01:03:08;11.60;99.90
39019;DHT22;24786;51.984;5.872;2023-05-29T01:05:34;11.60;99.90
39019;DHT22;24786;51.984;5.872;2023-05-29T01:08:01;11.50;99.90
39019;DHT22;24786;51.984;5.872;2023-05-29T01:10:27;11.50;99.90
39019;DHT22;24786;51.984;5.872;2023-05-29T01:13:11;11.40;99.90
39019;DHT22;24786;51.984;5.872;2023-05-29T01:15:40;11.40;99.90
39019;DHT22;24786;51.984;5.872;2023-05-29T01:18:08;11.40;99.90
39019;DHT22;24786;51.984;5.872;2023-05-29T01:20:42;11.40;99.90
39019;DHT22;24786;51.984;5.872;2023-05-29T01:25:55;11.40;99.90
39019;DHT22;24786;51.984;5.872;2023-05-29T01:28:22;11.40;99.90
39019;DHT22;24786;51.984;5.872;2023-05-29T01:30:49;11.30;99.90
39019;DHT22;24786;51.984;5.872;2023-05-29T01:33:15;11.30;99.90
39019;DHT22;24786;51.984;5.872;2023-05-29T01:35:40;11.30;99.90
39019;DHT22;24786;51.984;5.872;2023-05-29T01:38:06;11.30;99.90
39019;DHT22;24786;51.984;5.872;2023-05-29T01:40:31;11.30;99.90
39019;DHT22;24786;51.984;5.872;2023-05-29T01:42:57;11.20;99.90
39019;DHT22;24786;51.984;5.872;2023-05-29T01:45:22;11.20;99.90
39019;DHT22;24786;51.984;5.872;2023-05-29T01:47:48;11.20;99.90
39019;DHT22;24786;51.984;5.872;2023-05-29T01:50:15;11.10;99.90
39019;DHT22;24786;51.984;5.872;2023-05-29T01:52:43;11.10;99.90
39019;DHT22;24786;51.984;5.872;2023-05-29T01:55:08;11.10;99.90
39019;DHT22;24786;51.984;5.872;2023-05-29T01:57:34;11.10;99.90
39019;DHT22;24786;51.984;5.872;2023-05-29T02:00:00;11.00;99.90
39019;DHT22;24786;51.984;5.872;2023-05-29T02:02:26;11.00;99.90
39019;DHT22;24786;51.984;5.872;2023-05-29T02:04:52;10.90;99.90
39019;DHT22;24786;51.984;5.872;2023-05-29T02:07:18;10.90;99.90
39019;DHT22;24786;51.984;5.872;2023-05-29T02:09:44;10.90;99.90
39019;DHT22;24786;51.984;5.872;2023-05-29T02:12:10;10.90;99.90
39019;DHT22;24786;51.984;5.872;2023-05-29T02:14:35;10.90;99.90
39019;DHT22;24786;51.984;5.872;2023-05-29T02:17:02;10.80;99.90
39019;DHT22;24786;51.984;5.872;2023-05-29T02:19:28;10.80;99.90
39019;DHT22;24786;51.984;5.872;2023-05-29T02:21:53;10.80;99.90
39019;DHT22;24786;51.984;5.872;2023-05-29T02:24:19;10.80;99.90
39019;DHT22;24786;51.984;5.872;2023-05-29T02:26:45;10.80;99.90
39019;DHT22;24786;51.984;5.872;2023-05-29T02:29:10;10.80;99.90
39019;DHT22;24786;51.984;5.872;2023-05-29T02:31:36;10.70;99.90
39019;DHT22;24786;51.984;5.872;2023-05-29T02:34:01;10.70;99.90
39019;DHT22;24786;51.984;5.872;2023-05-29T02:36:27;10.70;99.90
39019;DHT22;24786;51.984;5.872;2023-05-29T02:38:53;10.60;99.90
39019;DHT22;24786;51.984;5.872;2023-05-29T02:41:18;10.60;99.90
39019;DHT22;24786;51.984;5.872;2023-05-29T02:43:44;10.60;99.90
39019;DHT22;24786;51.984;5.872;2023-05-29T02:46:09;10.60;99.90
39019;DHT22;24786;51.984;5.872;2023-05-29T02:48:35;10.50;99.90
39019;DHT22;24786;51.984;5.872;2023-05-29T02:51:00;10.50;99.90
39019;DHT22;24786;51.984;5.872;2023-05-29T02:53:25;10.50;99.90
39019;DHT22;24786;51.984;5.872;2023-05-29T02:55:51;10.50;99.90
39019;DHT22;24786;51.984;5.872;2023-05-29T02:58:16;10.40;99.90
39019;DHT22;24786;51.984;5.872;2023-05-29T03:00:42;10.40;99.90
39019;DHT22;24786;51.984;5.872;2023-05-29T03:03:08;10.40;99.90
39019;DHT22;24786;51.984;5.872;2023-05-29T03:05:33;10.30;99.90
39019;DHT22;24786;51.984;5.872;2023-05-29T03:07:59;10.30;99.90
39019;DHT22;24786;51.984;5.872;2023-05-29T03:10:24;10.30;99.90
39019;DHT22;24786;51.984;5.872;2023-05-29T03:12:50;10.30;99.90
39019;DHT22;24786;51.984;5.872;2023-05-29T03:15:16;10.30;99.90
39019;DHT22;24786;51.984;5.872;2023-05-29T03:17:42;10.30;99.90
39019;DHT22;24786;51.984;5.872;2023-05-29T03:20:07;10.20;99.90
39019;DHT22;24786;51.984;5.872;2023-05-29T03:22:35;10.20;99.90
39019;DHT22;24786;51.984;5.872;2023-05-29T03:25:04;10.20;99.90
39019;DHT22;24786;51.984;5.872;2023-05-29T03:27:31;10.20;99.90
39019;DHT22;24786;51.984;5.872;2023-05-29T03:29:56;10.20;99.90
39019;DHT22;24786;51.984;5.872;2023-05-29T03:32:23;10.10;99.90
39019;DHT22;24786;51.984;5.872;2023-05-29T03:34:48;10.10;99.90
39019;DHT22;24786;51.984;5.872;2023-05-29T03:37:14;10.10;99.90
39019;DHT22;24786;51.984;5.872;2023-05-29T03:39:39;10.10;99.90
39019;DHT22;24786;51.984;5.872;2023-05-29T03:42:05;10.10;99.90
39019;DHT22;24786;51.984;5.872;2023-05-29T03:44:30;10.10;99.90
39019;DHT22;24786;51.984;5.872;2023-05-29T03:46:56;10.10;99.90
39019;DHT22;24786;51.984;5.872;2023-05-29T03:49:21;10.00;99.90
39019;DHT22;24786;51.984;5.872;2023-05-29T03:51:47;10.00;99.90
39019;DHT22;24786;51.984;5.872;2023-05-29T03:54:12;10.00;99.90
39019;DHT22;24786;51.984;5.872;2023-05-29T03:56:38;10.10;99.90
39019;DHT22;24786;51.984;5.872;2023-05-29T03:59:03;10.10;99.90
39019;DHT22;24786;51.984;5.872;2023-05-29T04:01:29;10.10;99.90
39019;DHT22;24786;51.984;5.872;2023-05-29T04:03:54;10.10;99.90
39019;DHT22;24786;51.984;5.872;2023-05-29T04:06:20;10.00;99.90
39019;DHT22;24786;51.984;5.872;2023-05-29T04:08:46;10.10;99.90
39019;DHT22;24786;51.984;5.872;2023-05-29T04:11:12;10.10;99.90
39019;DHT22;24786;51.984;5.872;2023-05-29T04:13:38;10.10;99.90
39019;DHT22;24786;51.984;5.872;2023-05-29T04:16:04;10.10;99.90
39019;DHT22;24786;51.984;5.872;2023-05-29T04:18:29;10.10;99.90
39019;DHT22;24786;51.984;5.872;2023-05-29T04:20:55;10.10;99.90
39019;DHT22;24786;51.984;5.872;2023-05-29T04:23:20;10.20;99.90
39019;DHT22;24786;51.984;5.872;2023-05-29T04:25:46;10.20;99.90
39019;DHT22;24786;51.984;5.872;2023-05-29T04:28:12;10.10;99.90
39019;DHT22;24786;51.984;5.872;2023-05-29T04:30:37;10.20;99.90
39019;DHT22;24786;51.984;5.872;2023-05-29T04:33:04;10.10;99.90
39019;DHT22;24786;51.984;5.872;2023-05-29T04:35:30;10.20;99.90
39019;DHT22;24786;51.984;5.872;2023-05-29T04:37:55;10.20;99.90
39019;DHT22;24786;51.984;5.872;2023-05-29T04:40:24;10.20;99.90
39019;DHT22;24786;51.984;5.872;2023-05-29T04:42:49;10.10;99.90
39019;DHT22;24786;51.984;5.872;2023-05-29T04:45:15;10.10;99.90
39019;DHT22;24786;51.984;5.872;2023-05-29T04:47:41;10.20;99.90
39019;DHT22;24786;51.984;5.872;2023-05-29T04:50:10;10.20;99.90
39019;DHT22;24786;51.984;5.872;2023-05-29T04:52:36;10.20;99.90
39019;DHT22;24786;51.984;5.872;2023-05-29T04:55:02;10.20;99.90
39019;DHT22;24786;51.984;5.872;2023-05-29T04:57:28;10.30;99.90
39019;DHT22;24786;51.984;5.872;2023-05-29T04:59:53;10.30;99.90
39019;DHT22;24786;51.984;5.872;2023-05-29T05:02:19;10.30;99.90
39019;DHT22;24786;51.984;5.872;2023-05-29T05:04:44;10.40;99.90
39019;DHT22;24786;51.984;5.872;2023-05-29T05:07:11;10.40;99.90
39019;DHT22;24786;51.984;5.872;2023-05-29T05:09:36;10.50;99.90
39019;DHT22;24786;51.984;5.872;2023-05-29T05:12:02;10.60;99.90
39019;DHT22;24786;51.984;5.872;2023-05-29T05:14:28;10.70;99.90
39019;DHT22;24786;51.984;5.872;2023-05-29T05:16:53;10.80;99.90
39019;DHT22;24786;51.984;5.872;2023-05-29T05:19:19;10.90;99.90
39019;DHT22;24786;51.984;5.872;2023-05-29T05:21:44;11.00;99.90
39019;DHT22;24786;51.984;5.872;2023-05-29T05:24:10;11.10;99.90
39019;DHT22;24786;51.984;5.872;2023-05-29T05:26:35;11.20;99.90
39019;DHT22;24786;51.984;5.872;2023-05-29T05:29:01;11.20;99.90
39019;DHT22;24786;51.984;5.872;2023-05-29T05:31:26;11.30;99.90
39019;DHT22;24786;51.984;5.872;2023-05-29T05:33:52;11.40;99.90
39019;DHT22;24786;51.984;5.872;2023-05-29T05:36:17;11.50;99.90
39019;DHT22;24786;51.984;5.872;2023-05-29T05:38:43;11.60;99.90
39019;DHT22;24786;51.984;5.872;2023-05-29T05:41:09;11.60;99.90
39019;DHT22;24786;51.984;5.872;2023-05-29T05:43:38;11.70;99.90
39019;DHT22;24786;51.984;5.872;2023-05-29T05:46:03;11.80;99.90
39019;DHT22;24786;51.984;5.872;2023-05-29T05:48:31;11.90;99.90
39019;DHT22;24786;51.984;5.872;2023-05-29T05:50:57;12.00;99.90
39019;DHT22;24786;51.984;5.872;2023-05-29T05:53:22;12.10;99.90
39019;DHT22;24786;51.984;5.872;2023-05-29T05:55:48;12.20;99.90
39019;DHT22;24786;51.984;5.872;2023-05-29T05:58:14;12.30;99.90
39019;DHT22;24786;51.984;5.872;2023-05-29T06:00:39;12.40;99.90
39019;DHT22;24786;51.984;5.872;2023-05-29T06:03:05;12.50;99.90
39019;DHT22;24786;51.984;5.872;2023-05-29T06:05:30;12.60;99.90
39019;DHT22;24786;51.984;5.872;2023-05-29T06:07:56;12.80;99.90
39019;DHT22;24786;51.984;5.872;2023-05-29T06:10:21;12.80;99.90
39019;DHT22;24786;51.984;5.872;2023-05-29T06:12:47;12.90;99.90
39019;DHT22;24786;51.984;5.872;2023-05-29T06:15:12;13.00;99.90
39019;DHT22;24786;51.984;5.872;2023-05-29T06:17:38;13.10;99.90
39019;DHT22;24786;51.984;5.872;2023-05-29T06:20:04;13.30;99.90
39019;DHT22;24786;51.984;5.872;2023-05-29T06:22:35;13.40;99.90
39019;DHT22;24786;51.984;5.872;2023-05-29T06:25:00;13.40;99.90
39019;DHT22;24786;51.984;5.872;2023-05-29T06:27:26;13.50;99.90
39019;DHT22;24786;51.984;5.872;2023-05-29T06:29:51;13.50;99.90
39019;DHT22;24786;51.984;5.872;2023-05-29T06:32:17;13.60;99.90
39019;DHT22;24786;51.984;5.872;2023-05-29T06:34:42;13.70;99.90
39019;DHT22;24786;51.984;5.872;2023-05-29T06:37:08;13.70;99.90
39019;DHT22;24786;51.984;5.872;2023-05-29T06:39:34;13.80;99.90
39019;DHT22;24786;51.984;5.872;2023-05-29T06:41:59;13.90;99.90
39019;DHT22;24786;51.984;5.872;2023-05-29T06:44:26;14.00;99.90
39019;DHT22;24786;51.984;5.872;2023-05-29T06:46:52;14.00;99.90
39019;DHT22;24786;51.984;5.872;2023-05-29T06:49:17;14.10;99.90
39019;DHT22;24786;51.984;5.872;2023-05-29T06:51:44;14.20;99.90
39019;DHT22;24786;51.984;5.872;2023-05-29T06:54:09;14.20;99.90
39019;DHT22;24786;51.984;5.872;2023-05-29T06:56:35;14.20;99.90
39019;DHT22;24786;51.984;5.872;2023-05-29T06:59:00;14.30;99.90
39019;DHT22;24786;51.984;5.872;2023-05-29T07:01:26;14.30;99.90
39019;DHT22;24786;51.984;5.872;2023-05-29T07:03:52;14.40;99.90
39019;DHT22;24786;51.984;5.872;2023-05-29T07:06:17;14.40;99.90
39019;DHT22;24786;51.984;5.872;2023-05-29T07:08:43;14.40;99.90
39019;DHT22;24786;51.984;5.872;2023-05-29T07:11:08;14.50;99.90
39019;DHT22;24786;51.984;5.872;2023-05-29T07:13:34;14.50;99.90
39019;DHT22;24786;51.984;5.872;2023-05-29T07:16:00;14.50;99.90
39019;DHT22;24786;51.984;5.872;2023-05-29T07:18:26;14.50;99.90
39019;DHT22;24786;51.984;5.872;2023-05-29T07:20:51;14.50;99.90
39019;DHT22;24786;51.984;5.872;2023-05-29T07:23:17;14.60;99.90
39019;DHT22;24786;51.984;5.872;2023-05-29T07:25:42;14.60;99.90
39019;DHT22;24786;51.984;5.872;2023-05-29T07:28:08;14.60;99.90
39019;DHT22;24786;51.984;5.872;2023-05-29T07:30:33;14.60;99.90
39019;DHT22;24786;51.984;5.872;2023-05-29T07:32:59;14.60;99.90
39019;DHT22;24786;51.984;5.872;2023-05-29T07:35:24;14.70;99.90
39019;DHT22;24786;51.984;5.872;2023-05-29T07:37:50;14.80;99.90
39019;DHT22;24786;51.984;5.872;2023-05-29T07:40:17;14.80;99.90
39019;DHT22;24786;51.984;5.872;2023-05-29T07:42:43;14.90;99.90
39019;DHT22;24786;51.984;5.872;2023-05-29T07:45:08;15.00;99.90
39019;DHT22;24786;51.984;5.872;2023-05-29T07:47:34;15.00;99.90
39019;DHT22;24786;51.984;5.872;2023-05-29T07:50:00;14.90;99.90
39019;DHT22;24786;51.984;5.872;2023-05-29T07:52:25;14.90;99.90
39019;DHT22;24786;51.984;5.872;2023-05-29T07:54:52;15.00;99.90
39019;DHT22;24786;51.984;5.872;2023-05-29T07:57:17;15.10;99.90
39019;DHT22;24786;51.984;5.872;2023-05-29T07:59:43;15.00;99.90
39019;DHT22;24786;51.984;5.872;2023-05-29T08:02:08;15.20;99.90
39019;DHT22;24786;51.984;5.872;2023-05-29T08:04:34;15.30;99.90
39019;DHT22;24786;51.984;5.872;2023-05-29T08:07:02;15.40;99.90
39019;DHT22;24786;51.984;5.872;2023-05-29T08:09:31;15.50;99.90
39019;DHT22;24786;51.984;5.872;2023-05-29T08:11:56;15.50;99.90
39019;DHT22;24786;51.984;5.872;2023-05-29T08:14:22;15.50;99.90
39019;DHT22;24786;51.984;5.872;2023-05-29T08:16:48;15.50;99.90
39019;DHT22;24786;51.984;5.872;2023-05-29T08:19:13;15.50;99.90
39019;DHT22;24786;51.984;5.872;2023-05-29T08:21:39;15.50;99.90
39019;DHT22;24786;51.984;5.872;2023-05-29T08:24:05;15.50;99.90
39019;DHT22;24786;51.984;5.872;2023-05-29T08:26:30;15.50;99.90
39019;DHT22;24786;51.984;5.872;2023-05-29T08:28:56;15.60;99.90
39019;DHT22;24786;51.984;5.872;2023-05-29T08:31:21;15.60;99.90
39019;DHT22;24786;51.984;5.872;2023-05-29T08:33:49;15.70;99.90
39019;DHT22;24786;51.984;5.872;2023-05-29T08:36:14;15.80;99.90
39019;DHT22;24786;51.984;5.872;2023-05-29T08:38:40;15.80;99.90
39019;DHT22;24786;51.984;5.872;2023-05-29T08:41:05;15.80;99.90
39019;DHT22;24786;51.984;5.872;2023-05-29T08:43:32;15.80;99.90
39019;DHT22;24786;51.984;5.872;2023-05-29T08:46:01;15.80;99.90
39019;DHT22;24786;51.984;5.872;2023-05-29T08:48:29;15.80;99.90
39019;DHT22;24786;51.984;5.872;2023-05-29T08:50:55;16.00;99.90
39019;DHT22;24786;51.984;5.872;2023-05-29T08:53:22;16.00;99.90
39019;DHT22;24786;51.984;5.872;2023-05-29T08:55:47;16.10;99.90
39019;DHT22;24786;51.984;5.872;2023-05-29T08:58:16;16.00;99.90
39019;DHT22;24786;51.984;5.872;2023-05-29T09:00:41;16.10;99.90
39019;DHT22;24786;51.984;5.872;2023-05-29T09:03:07;16.20;99.90
39019;DHT22;24786;51.984;5.872;2023-05-29T09:05:34;16.30;99.90
39019;DHT22;24786;51.984;5.872;2023-05-29T09:08:04;16.40;99.90
39019;DHT22;24786;51.984;5.872;2023-05-29T09:10:30;16.40;99.90
39019;DHT22;24786;51.984;5.872;2023-05-29T09:12:56;16.50;99.90
39019;DHT22;24786;51.984;5.872;2023-05-29T09:15:22;16.50;99.80
39019;DHT22;24786;51.984;5.872;2023-05-29T09:17:57;16.40;99.60
39019;DHT22;24786;51.984;5.872;2023-05-29T09:20:23;16.50;99.70
39019;DHT22;24786;51.984;5.872;2023-05-29T09:25:24;16.60;99.70
39019;DHT22;24786;51.984;5.872;2023-05-29T09:27:51;16.60;99.80
39019;DHT22;24786;51.984;5.872;2023-05-29T09:30:30;16.70;99.50
39019;DHT22;24786;51.984;5.872;2023-05-29T09:32:56;16.70;99.40
39019;DHT22;24786;51.984;5.872;2023-05-29T09:35:21;16.90;99.50
39019;DHT22;24786;51.984;5.872;2023-05-29T09:37:46;17.00;99.50
39019;DHT22;24786;51.984;5.872;2023-05-29T09:40:12;17.10;99.40
39019;DHT22;24786;51.984;5.872;2023-05-29T09:42:38;17.20;99.30
39019;DHT22;24786;51.984;5.872;2023-05-29T09:45:04;17.40;99.20
39019;DHT22;24786;51.984;5.872;2023-05-29T09:47:32;17.50;98.90
39019;DHT22;24786;51.984;5.872;2023-05-29T09:49:58;17.50;98.70
39019;DHT22;24786;51.984;5.872;2023-05-29T09:52:25;17.50;98.50
39019;DHT22;24786;51.984;5.872;2023-05-29T09:54:51;17.40;98.30
39019;DHT22;24786;51.984;5.872;2023-05-29T09:57:17;17.40;98.10
39019;DHT22;24786;51.984;5.872;2023-05-29T09:59:43;17.40;98.30
39019;DHT22;24786;51.984;5.872;2023-05-29T10:02:10;17.40;98.50
39019;DHT22;24786;51.984;5.872;2023-05-29T10:04:37;17.50;98.60
39019;DHT22;24786;51.984;5.872;2023-05-29T10:07:08;17.50;98.30
39019;DHT22;24786;51.984;5.872;2023-05-29T10:09:37;17.70;98.30
39019;DHT22;24786;51.984;5.872;2023-05-29T10:12:04;17.90;98.10
39019;DHT22;24786;51.984;5.872;2023-05-29T10:14:33;18.00;97.80
39019;DHT22;24786;51.984;5.872;2023-05-29T10:16:59;18.00;97.50
39019;DHT22;24786;51.984;5.872;2023-05-29T10:19:27;18.00;97.30
39019;DHT22;24786;51.984;5.872;2023-05-29T10:21:54;18.00;97.10
39019;DHT22;24786;51.984;5.872;2023-05-29T10:24:21;18.00;97.10
39019;DHT22;24786;51.984;5.872;2023-05-29T10:26:47;18.00;97.20
39019;DHT22;24786;51.984;5.872;2023-05-29T10:29:17;18.10;97.10
39019;DHT22;24786;51.984;5.872;2023-05-29T10:31:46;18.30;96.40
39019;DHT22;24786;51.984;5.872;2023-05-29T10:34:31;18.30;96.20
39019;DHT22;24786;51.984;5.872;2023-05-29T10:37:04;18.50;96.10
39019;DHT22;24786;51.984;5.872;2023-05-29T10:39:31;18.50;95.80
39019;DHT22;24786;51.984;5.872;2023-05-29T10:41:57;18.60;95.40
39019;DHT22;24786;51.984;5.872;2023-05-29T10:49:23;18.50;94.30
39019;DHT22;24786;51.984;5.872;2023-05-29T10:51:49;18.50;94.10
39019;DHT22;24786;51.984;5.872;2023-05-29T10:54:14;18.50;94.20
39019;DHT22;24786;51.984;5.872;2023-05-29T10:56:41;18.50;94.20
39019;DHT22;24786;51.984;5.872;2023-05-29T10:59:09;18.40;94.20
39019;DHT22;24786;51.984;5.872;2023-05-29T11:01:34;18.40;94.20
39019;DHT22;24786;51.984;5.872;2023-05-29T11:06:43;18.50;94.40
39019;DHT22;24786;51.984;5.872;2023-05-29T11:09:27;18.60;94.30
39019;DHT22;24786;51.984;5.872;2023-05-29T11:12:14;18.60;94.20
39019;DHT22;24786;51.984;5.872;2023-05-29T11:17:42;18.70;94.10
39019;DHT22;24786;51.984;5.872;2023-05-29T11:20:09;18.70;93.80
39019;DHT22;24786;51.984;5.872;2023-05-29T11:25:15;18.70;93.50
39019;DHT22;24786;51.984;5.872;2023-05-29T11:27:42;18.90;93.50
39019;DHT22;24786;51.984;5.872;2023-05-29T11:30:07;19.00;93.50
39019;DHT22;24786;51.984;5.872;2023-05-29T11:32:33;19.10;93.40
39019;DHT22;24786;51.984;5.872;2023-05-29T11:34:59;19.20;92.80
39019;DHT22;24786;51.984;5.872;2023-05-29T11:37:29;19.30;92.70
39019;DHT22;24786;51.984;5.872;2023-05-29T11:39:57;19.40;92.80
39019;DHT22;24786;51.984;5.872;2023-05-29T11:42:22;19.30;92.40
39019;DHT22;24786;51.984;5.872;2023-05-29T11:44:48;19.40;92.30
39019;DHT22;24786;51.984;5.872;2023-05-29T11:47:13;19.40;92.00
39019;DHT22;24786;51.984;5.872;2023-05-29T11:49:40;19.30;92.30
39019;DHT22;24786;51.984;5.872;2023-05-29T11:52:12;19.40;92.30
39019;DHT22;24786;51.984;5.872;2023-05-29T11:54:39;19.50;92.10
39019;DHT22;24786;51.984;5.872;2023-05-29T11:57:04;19.50;91.90
39019;DHT22;24786;51.984;5.872;2023-05-29T11:59:31;19.50;91.50
39019;DHT22;24786;51.984;5.872;2023-05-29T12:01:57;19.50;91.30
39019;DHT22;24786;51.984;5.872;2023-05-29T12:04:22;19.40;91.50
39019;DHT22;24786;51.984;5.872;2023-05-29T12:06:48;19.40;91.30
39019;DHT22;24786;51.984;5.872;2023-05-29T12:09:28;19.40;90.90
39019;DHT22;24786;51.984;5.872;2023-05-29T12:12:04;19.30;90.90
39019;DHT22;24786;51.984;5.872;2023-05-29T12:14:29;19.40;90.80
39019;DHT22;24786;51.984;5.872;2023-05-29T12:16:55;19.50;90.60
39019;DHT22;24786;51.984;5.872;2023-05-29T12:19:20;19.60;90.60
39019;DHT22;24786;51.984;5.872;2023-05-29T12:21:46;19.60;90.50
39019;DHT22;24786;51.984;5.872;2023-05-29T12:24:11;19.60;89.80
39019;DHT22;24786;51.984;5.872;2023-05-29T12:26:37;19.70;89.30
39019;DHT22;24786;51.984;5.872;2023-05-29T12:29:03;19.70;89.70
39019;DHT22;24786;51.984;5.872;2023-05-29T12:31:30;19.70;89.50
39019;DHT22;24786;51.984;5.872;2023-05-29T12:34:07;19.70;89.60
39019;DHT22;24786;51.984;5.872;2023-05-29T12:36:33;19.80;89.80
39019;DHT22;24786;51.984;5.872;2023-05-29T12:38:58;19.80;89.00
39019;DHT22;24786;51.984;5.872;2023-05-29T12:41:24;19.90;88.70
39019;DHT22;24786;51.984;5.872;2023-05-29T12:43:57;19.90;89.00
39019;DHT22;24786;51.984;5.872;2023-05-29T12:46:24;20.00;89.20
39019;DHT22;24786;51.984;5.872;2023-05-29T12:48:49;20.10;87.20
39019;DHT22;24786;51.984;5.872;2023-05-29T12:51:17;20.00;87.00
39019;DHT22;24786;51.984;5.872;2023-05-29T12:53:43;19.90;87.20
39019;DHT22;24786;51.984;5.872;2023-05-29T12:56:08;20.00;87.20
39019;DHT22;24786;51.984;5.872;2023-05-29T12:58:33;19.90;87.50
39019;DHT22;24786;51.984;5.872;2023-05-29T13:00:59;20.00;87.70
39019;DHT22;24786;51.984;5.872;2023-05-29T13:03:24;19.90;87.60
39019;DHT22;24786;51.984;5.872;2023-05-29T13:05:51;19.80;87.30
39019;DHT22;24786;51.984;5.872;2023-05-29T13:08:16;19.90;87.40
39019;DHT22;24786;51.984;5.872;2023-05-29T13:10:42;19.90;87.00
39019;DHT22;24786;51.984;5.872;2023-05-29T13:13:11;19.90;86.50
39019;DHT22;24786;51.984;5.872;2023-05-29T13:15:37;19.90;86.20
39019;DHT22;24786;51.984;5.872;2023-05-29T13:18:03;19.90;86.20
39019;DHT22;24786;51.984;5.872;2023-05-29T13:20:28;20.00;86.50
39019;DHT22;24786;51.984;5.872;2023-05-29T13:22:55;20.10;86.70
39019;DHT22;24786;51.984;5.872;2023-05-29T13:25:20;20.10;85.30
39019;DHT22;24786;51.984;5.872;2023-05-29T13:27:46;20.20;85.60
39019;DHT22;24786;51.984;5.872;2023-05-29T13:30:13;20.10;85.20
39019;DHT22;24786;51.984;5.872;2023-05-29T13:32:38;20.00;85.10
39019;DHT22;24786;51.984;5.872;2023-05-29T13:35:04;20.10;85.80
39019;DHT22;24786;51.984;5.872;2023-05-29T13:37:30;20.20;85.40
39019;DHT22;24786;51.984;5.872;2023-05-29T13:39:56;20.30;85.30
39019;DHT22;24786;51.984;5.872;2023-05-29T13:42:21;20.30;85.70
39019;DHT22;24786;51.984;5.872;2023-05-29T13:44:47;20.40;85.20
39019;DHT22;24786;51.984;5.872;2023-05-29T13:47:13;20.40;84.80
39019;DHT22;24786;51.984;5.872;2023-05-29T13:49:39;20.40;84.70
39019;DHT22;24786;51.984;5.872;2023-05-29T13:52:04;20.30;84.70
39019;DHT22;24786;51.984;5.872;2023-05-29T13:54:30;20.30;84.30
39019;DHT22;24786;51.984;5.872;2023-05-29T13:57:00;20.30;83.40
39019;DHT22;24786;51.984;5.872;2023-05-29T13:59:27;20.40;83.80
39019;DHT22;24786;51.984;5.872;2023-05-29T14:01:52;20.50;83.90
39019;DHT22;24786;51.984;5.872;2023-05-29T14:04:17;20.60;83.50
39019;DHT22;24786;51.984;5.872;2023-05-29T14:06:43;20.50;83.10
39019;DHT22;24786;51.984;5.872;2023-05-29T14:09:08;20.40;83.10
39019;DHT22;24786;51.984;5.872;2023-05-29T14:11:38;20.30;82.20
39019;DHT22;24786;51.984;5.872;2023-05-29T14:14:03;20.40;82.60
39019;DHT22;24786;51.984;5.872;2023-05-29T14:16:31;20.50;82.20
39019;DHT22;24786;51.984;5.872;2023-05-29T14:18:57;20.60;81.60
39019;DHT22;24786;51.984;5.872;2023-05-29T14:21:23;20.70;82.20
39019;DHT22;24786;51.984;5.872;2023-05-29T14:23:48;20.80;81.50
39019;DHT22;24786;51.984;5.872;2023-05-29T14:26:14;20.90;81.30
39019;DHT22;24786;51.984;5.872;2023-05-29T14:28:39;20.90;80.30
39019;DHT22;24786;51.984;5.872;2023-05-29T14:31:05;20.90;80.30
39019;DHT22;24786;51.984;5.872;2023-05-29T14:33:31;20.90;80.30
39019;DHT22;24786;51.984;5.872;2023-05-29T14:35:56;20.90;80.60
39019;DHT22;24786;51.984;5.872;2023-05-29T14:38:23;21.00;80.20
39019;DHT22;24786;51.984;5.872;2023-05-29T14:40:51;20.90;78.50
39019;DHT22;24786;51.984;5.872;2023-05-29T14:43:16;20.90;78.70
39019;DHT22;24786;51.984;5.872;2023-05-29T14:45:42;20.90;77.60
39019;DHT22;24786;51.984;5.872;2023-05-29T14:48:10;20.80;77.80
39019;DHT22;24786;51.984;5.872;2023-05-29T14:50:36;20.80;78.20
39019;DHT22;24786;51.984;5.872;2023-05-29T14:53:01;20.70;78.40
39019;DHT22;24786;51.984;5.872;2023-05-29T14:55:27;20.70;78.00
39019;DHT22;24786;51.984;5.872;2023-05-29T14:57:58;20.70;77.30
39019;DHT22;24786;51.984;5.872;2023-05-29T15:00:24;20.70;77.80
39019;DHT22;24786;51.984;5.872;2023-05-29T15:02:50;20.70;77.70
39019;DHT22;24786;51.984;5.872;2023-05-29T15:05:30;20.60;77.20
39019;DHT22;24786;51.984;5.872;2023-05-29T15:07:56;20.60;77.70
39019;DHT22;24786;51.984;5.872;2023-05-29T15:10:24;20.70;77.00
39019;DHT22;24786;51.984;5.872;2023-05-29T15:12:51;20.60;77.50
39019;DHT22;24786;51.984;5.872;2023-05-29T15:15:32;20.60;77.10
39019;DHT22;24786;51.984;5.872;2023-05-29T15:17:58;20.70;76.10
39019;DHT22;24786;51.984;5.872;2023-05-29T15:20:33;20.60;76.00
39019;DHT22;24786;51.984;5.872;2023-05-29T15:22:59;20.60;76.00
39019;DHT22;24786;51.984;5.872;2023-05-29T15:25:24;20.60;75.40
39019;DHT22;24786;51.984;5.872;2023-05-29T15:27:50;20.50;75.60
39019;DHT22;24786;51.984;5.872;2023-05-29T15:30:16;20.60;75.10
39019;DHT22;24786;51.984;5.872;2023-05-29T15:33:07;20.60;74.20
39019;DHT22;24786;51.984;5.872;2023-05-29T15:38:46;20.60;75.10
39019;DHT22;24786;51.984;5.872;2023-05-29T15:41:12;20.70;75.40
39019;DHT22;24786;51.984;5.872;2023-05-29T15:43:37;20.70;74.20
39019;DHT22;24786;51.984;5.872;2023-05-29T15:46:03;20.60;74.50
39019;DHT22;24786;51.984;5.872;2023-05-29T15:48:43;20.60;75.30